Grenada, MS (38901)

2:27 AM CDT on August 29, 2015 (GMT -0500)
Grenada, MS | | Change Station
CLOSE
Current Station
Personal Weather Station
Location: Grenada, MS
Elevation: 318 ft
Nearby Weather Stations

Elev 318 ft 33.77 °N, 89.82 °W | Updated 10 seconds ago

Clear
Clear
71.6 °F
Feels Like 71.6 °F
N
0.0
Wind Variable Wind from SSE
Gusts 0.0 mph

Today
High -- | Low -- °F
--% Chance of Precip.
Yesterday
High -- | Low -- °F
Precip. -- in
6:30 AM 7:29 PM
Full, 100% visible
Pressure 30.01 in
Visibility 10.0 miles
Clouds Clear
Dew Point 68 °F
Humidity 87%
Rainfall 0.00 in
Snow Depth Not available.
UV 0.0 out of 12
Pollen 8.60 out of 12
Air Quality Not available.
Flu Activity Not available.
METAR KGWO 290653Z AUTO 35004KT 10SM CLR 21/18 A3001 RMK AO2 SLP160 T02060178
Pressure 30.01 in
Visibility 10.0 miles
Clouds Clear
Dew Point 68 °F
Humidity 87%
Rainfall 0.00 in
Snow Depth Not available.
UV 0.0 out of 12
Pollen 8.60 out of 12
Air Quality Not available.
Flu Activity Not available.
METAR KGWO 290653Z AUTO 35004KT 10SM CLR 21/18 A3001 RMK AO2 SLP160 T02060178

10-Day Weather Forecast

×

Almanac

Astronomy

Aug. 29, 2015 Rise Set
Actual Time
Civil Twilight
Nautical Twilight
Astronomical Twilight
Moon
Length of Visible Light
Length of Day
Tomorrow will be .
, % of the Moon is Illuminated

Today's Extremes

State Highs State Lows

Community

WunderPhotos

Upload Photos

1,850,633 photos uploaded!

WunderBlogs® & News

Nearby

Air Quality

  Air Quality AQ Index Pollutant
Not available.

Snow Depth

Station Depth Elevation

Earthquake Activity

City Distance Mag. Time & Date
Minimum magnitude displayed is 2.5.

Coastal Water Temperatures

Place Temperature

Stations

Nearby Weather Stations

Station Location Temp. Windchill Dew Point Humidity Wind Precip. Elev Updated Type